Flight Track Log - Related Links

Times and Time Zones

All times are in EDT time to prevent confusion due to time zone crossing. See the EJA646 flight status page for this flight to view local times or setup timezone preferences in your user account.


Time Position Orientation Groundspeed Altitude Reporting Facility
EDT Latitude Longitude Course Direction KTS MPH feet Rate Location/Type
Thu 10:18:05 AM 35.7578 -84.0286 49° Northeast 150 173 5,300  Level Atlanta Center
Thu 10:19:05 AM 35.7308 -83.9594 116° Southeast 137 158 8,400 2,600 Climbing Atlanta Center
Thu 10:20:05 AM 35.7767 -83.8800 55° Northeast 181 208 10,500 2,050 Climbing Atlanta Center
Thu 10:21:05 AM 35.8369 -83.7953 49° Northeast 247 284 12,500 2,100 Climbing Atlanta Center
Thu 10:22:05 AM 35.9014 -83.7131 46° Northeast 289 333 14,700 2,050 Climbing Atlanta Center
Thu 10:23:00 AM 36.2341 -83.3783 49° Northeast  Level FlightAware Approximate
Thu 10:23:05 AM 35.9678 -83.6256 47° Northeast 323 372 16,600  Level Atlanta Center
Thu 10:24:05 AM 36.0342 -83.5356 48° Northeast 342 394 18,700 2,150 Climbing Atlanta Center
Thu 10:25:05 AM 36.1047 -83.4425 47° Northeast 358 412 20,900 2,100 Climbing Atlanta Center
Thu 10:26:05 AM 36.1731 -83.3494 48° Northeast 365 420 22,900 1,900 Climbing Atlanta Center
Thu 10:27:05 AM 36.2436 -83.2561 47° Northeast 371 427 24,700 1,750 Climbing Atlanta Center
Thu 10:28:05 AM 36.3158 -83.1600 47° Northeast 371 427 26,400 1,500 Climbing Atlanta Center
Thu 10:29:05 AM 36.3881 -83.0586 48° Northeast 377 434 27,700 950 Climbing Atlanta Center
Thu 10:30:05 AM 36.4664 -82.9544 47° Northeast 390 449 28,300 650 Climbing Atlanta Center
Thu 10:31:05 AM 36.5425 -82.8475 48° Northeast 410 472 29,000 672 Climbing Atlanta Center
Thu 10:32:10 AM 36.6372 -82.7203 47° Northeast 432 497 29,700 850 Climbing Indianapolis Center
Thu 10:33:12 AM 36.7175 -82.6119 47° Northeast 431 496 30,800 629 Climbing Indianapolis Center
Thu 10:34:14 AM 36.7981 -82.5014 48° Northeast 435 501 31,000 98 Climbing Indianapolis Center
Thu 10:35:15 AM 36.8950 -82.3694 47° Northeast 443 510 31,000  Level Indianapolis Center
Thu 10:36:17 AM 36.9781 -82.2561 47° Northeast 444 511 31,000  Level Indianapolis Center
Thu 10:37:19 AM 37.0617 -82.1408 48° Northeast 446 513 31,000  Level Indianapolis Center
Thu 10:38:20 AM 37.1447 -82.0242 48° Northeast 450 518 31,000  Level Indianapolis Center
Thu 10:39:22 AM 37.2269 -81.9086 48° Northeast 445 512 31,000  Level Indianapolis Center
Thu 10:40:24 AM 37.3019 -81.7847 53° Northeast 446 513 31,000  Level Indianapolis Center
Thu 10:41:25 AM 37.3747 -81.6592 54° Northeast 444 511 31,000  Level Indianapolis Center
Thu 10:42:27 AM 37.4617 -81.5122 53° Northeast 446 513 31,000 244 Level Indianapolis Center
Thu 10:43:28 AM 37.5281 -81.3997 53° Northeast 445 512 31,500 732 Climbing Indianapolis Center
Thu 10:44:30 AM 37.5983 -81.2783 54° Northeast 440 506 32,500 726 Climbing Indianapolis Center
Thu 10:45:32 AM 37.6836 -81.1344 53° Northeast 438 504 33,000 242 Climbing Indianapolis Center
Thu 10:46:34 AM 37.7556 -81.0089 54° Northeast 450 518 33,000  Level Indianapolis Center
Thu 10:47:36 AM 37.8294 -80.8792 54° Northeast 458 527 33,000  Level Washington Center
Thu 10:48:36 AM 37.9014 -80.7553 54° Northeast 453 521 33,000  Level Washington Center
Thu 10:49:36 AM 37.9928 -80.6219 49° Northeast 458 527 33,000  Level Washington Center
Thu 10:50:36 AM 38.0828 -80.5092 45° Northeast 458 527 33,000  Level Washington Center
Thu 10:51:36 AM 38.1747 -80.4017 43° Northeast 453 521 33,000  Level Washington Center
Thu 10:52:36 AM 38.2667 -80.2939 43° Northeast 446 513 33,000  Level Washington Center
Thu 10:53:36 AM 38.3417 -80.1875 48° Northeast 446 513 33,000  Level Washington Center
Thu 10:54:36 AM 38.3828 -80.0417 70° East 433 498 33,000 -950 Level Washington Center
Thu 10:55:36 AM 38.4175 -79.8900 74° East 431 496 31,100 -2,150 Descending Washington Center
Thu 10:56:36 AM 38.4539 -79.7411 73° East 437 503 28,700 -2,350 Descending Washington Center
Thu 10:57:36 AM 38.4903 -79.5892 73° East 437 503 26,400 -2,300 Descending Washington Center
Thu 10:58:36 AM 38.5247 -79.4292 75° East 427 491 24,100 -1,200 Descending Washington Center
Thu 10:59:36 AM 38.5522 -79.2844 76° East 427 491 24,000 -550 Descending Washington Center
Thu 11:00:36 AM 38.5731 -79.1503 79° East 429 494 23,000 -1,600 Descending Washington Center
Thu 11:01:36 AM 38.5958 -79.0106 78° East 422 486 20,800 -2,200 Descending Washington Center
Thu 11:02:36 AM 38.6206 -78.8708 77° East 408 470 18,600 -2,050 Descending Washington Center
Thu 11:03:36 AM 38.6469 -78.7417 75° East 389 448 16,700 -1,950 Descending Washington Center
Thu 11:04:36 AM 38.6772 -78.6153 73° East 376 433 14,700 -1,950 Descending Washington Center
Thu 11:05:36 AM 38.7053 -78.4942 73° East 369 425 12,800 -1,800 Descending Washington Center
Thu 11:06:36 AM 38.7331 -78.3833 72° East 341 392 11,100 -1,450 Descending Washington Center
Thu 11:07:36 AM 38.7892 -78.2975 50° Northeast 312 359 9,900 -1,050 Descending Washington Center
Thu 11:08:36 AM 38.8472 -78.2172 47° Northeast 312 359 9,000 -1,150 Descending Washington Center
Thu 11:09:36 AM 38.8767 -78.1142 70° East 301 346 7,600 -1,250 Descending Washington Center
Thu 11:10:36 AM 38.9036 -78.0111 71° East 294 338 6,500 -850 Descending Washington Center
Thu 11:11:36 AM 38.9286 -77.9106 72° East 294 338 5,900 -200 Descending Washington Center
Thu 11:12:36 AM 38.9533 -77.8125 72° East 294 338 6,100 100 Climbing Washington Center
Thu 11:13:36 AM 38.9572 -77.7086 87° East 270 311 6,100  Level Washington Center
Thu 11:14:36 AM 38.9692 -77.6233 80° East 270 311 6,100  Level Washington Center
Thu 11:15:08 AM 39.0167 -77.5833 33° Northeast 283 326 6,100  Level Potomac TRACON
Thu 11:16:08 AM 39.0833 -77.5667 11° North 266 306 6,100  Level Potomac TRACON
Thu 11:17:08 AM 39.1500 -77.5667 360° North 236 272 6,100  Level Potomac TRACON
Thu 11:18:08 AM 39.2167 -77.5833 349° North 220 253 6,100 -209 Level Potomac TRACON
Thu 11:19:03 AM 39.2667 -77.5667 14° North 224 258 5,700 -522 Descending Potomac TRACON
Thu 11:20:03 AM 39.3167 -77.5333 27° Northeast 224 258 5,100 -300 Descending Potomac TRACON
Thu 11:21:03 AM 39.3167 -77.4667 90° East 210 242 5,100 -50 Level Potomac TRACON
Thu 11:22:03 AM 39.2833 -77.4500 159° South 163 188 5,000  Descending Potomac TRACON
Thu 11:23:03 AM 39.2333 -77.4500 180° South 155 178 5,100 -150 Climbing Potomac TRACON
Thu 11:24:03 AM 39.1833 -77.4500 180° South 156 180 4,700 -650 Descending Potomac TRACON
Thu 11:25:03 AM 39.1500 -77.4500 180° South 153 176 3,800 -900 Descending Potomac TRACON

Login

Don't have an account? Register now (free) for customized features, flight alerts, and more!